Humidity-temperature Sensor

Selected Measurement Type: Relative Humidity

 
Relative Humidity [%]     6 entries per hour
Showing data from 4/26/2015 (00:00:00 Z) to 4/23/2015 (00:01:00 Z)
Previous Next [ Day | 3-Days | 7-Days ]
First Last
Prev [ Day | 3-Days | 7-Days ] Next
First Last

Start Time:     :
End Time:     :     
Time (in GMT) :00 :50 :40 :30 :20 :10
Previous Next [ Day | 3-Days | 7-Days ]
First Last
Prev [ Day | 3-Days | 7-Days ] Next
First Last


123 => good data
MM => data is determined as missing
-- => data not received/configured
Back to Top Back to Top
4/26/2015 00:00 to 23:10 78.02 77.16 75.90 76.54 76.44 76.68
4/25/2015 23:00 to 22:10 76.07 77.22 77.01 76.64 76.66 77.47
4/25/2015 22:00 to 21:10 77.82 76.99 76.31 75.67 74.77 75.92
4/25/2015 21:00 to 20:10 75.38 75.59 75.22 74.79 74.81 73.98
4/25/2015 20:00 to 19:10 76.42 75.24 75.84 75.76 75.12 74.48
4/25/2015 19:00 to 18:10 74.37 74.13 74.60 75.82 75.30 76.29
4/25/2015 18:00 to 17:10 76.70 78.66 74.93 73.36 74.99 76.50
4/25/2015 17:00 to 16:10 79.26 80.56 78.29 79.41 78.77 77.12
4/25/2015 16:00 to 15:10 77.67 79.10 78.97 79.14 78.27 76.68
4/25/2015 15:00 to 14:10 76.93 78.07 77.45 77.96 78.97 80.09
4/25/2015 14:00 to 13:10 80.85 80.81 80.93 80.77 81.92 83.94
4/25/2015 13:00 to 12:10 85.90 84.25 79.88 80.48 80.97 82.54
4/25/2015 12:00 to 11:10 85.35 85.06 83.82 83.80 80.11 83.06
4/25/2015 11:00 to 10:10 83.45 84.19 84.01 83.78 83.43 82.07
4/25/2015 10:00 to 9:10 81.70 82.71 82.93 82.56 77.24 78.79
4/25/2015 09:00 to 8:10 78.95 78.50 79.10 78.87 78.17 78.58
4/25/2015 08:00 to 7:10 80.33 84.17 83.99 83.90 82.89 81.37
4/25/2015 07:00 to 6:10 80.89 80.09 80.36 81.55 81.90 84.85
4/25/2015 06:00 to 5:10 86.83 82.11 81.39 80.44 80.95 82.17
4/25/2015 05:00 to 4:10 82.60 83.96 83.61 83.47 83.06 83.30
4/25/2015 04:00 to 3:10 82.75 82.36 83.08 83.12 83.86 82.44
4/25/2015 03:00 to 2:10 82.52 82.77 82.71 84.01 84.27 82.05
4/25/2015 02:00 to 1:10 81.10 80.36 81.98 82.40 81.84 82.27
4/25/2015 01:00 to 0:10 83.02 82.03 82.34 82.67 83.24 82.97
4/25/2015 00:00 to 23:10 82.52 83.72 82.36 85.82 83.90 80.46
4/24/2015 23:00 to 22:10 81.47 81.51 78.25 77.88 78.29 79.08
4/24/2015 22:00 to 21:10 78.50 78.89 80.00 79.10 78.48 78.75
4/24/2015 21:00 to 20:10 79.28 79.18 78.93 79.94 80.60 80.25
4/24/2015 20:00 to 19:10 80.19 80.19 79.39 79.45 79.14 78.75
4/24/2015 19:00 to 18:10 79.04 78.71 79.78 80.31 80.83 80.73
4/24/2015 18:00 to 17:10 80.99 80.58 79.67 79.88 79.55 80.15
4/24/2015 17:00 to 16:10 79.22 79.20 78.21 78.66 80.42 79.47
4/24/2015 16:00 to 15:10 79.63 84.36 86.34 84.85 80.05 78.44
4/24/2015 15:00 to 14:10 79.90 80.95 80.11 79.63 80.89 83.24
4/24/2015 14:00 to 13:10 82.69 82.67 85.35 86.69 85.68 84.79
4/24/2015 13:00 to 12:10 84.71 86.50 87.02 87.90 86.19 85.39
4/24/2015 12:00 to 11:10 83.16 82.85 85.06 85.55 84.87 84.36
4/24/2015 11:00 to 10:10 83.39 81.49 81.59 82.95 86.07 86.77
4/24/2015 10:00 to 9:10 87.47 87.62 87.47 84.21 82.83 84.36
4/24/2015 09:00 to 8:10 84.36 85.55 84.95 85.08 84.83 85.24
4/24/2015 08:00 to 7:10 85.26 86.07 85.14 84.27 82.89 83.20
4/24/2015 07:00 to 6:10 83.99 85.02 84.93 84.77 84.44 86.01
4/24/2015 06:00 to 5:10 88.30 87.00 85.88 86.89 87.16 87.45
4/24/2015 05:00 to 4:10 87.70 87.49 87.37 87.31 86.77 86.17
4/24/2015 04:00 to 3:10 86.52 87.26 87.62 87.62 87.78 85.88
4/24/2015 03:00 to 2:10 82.64 83.14 83.47 83.88 84.38 81.06
4/24/2015 02:00 to 1:10 80.46 79.57 80.21 80.66 81.06 80.62
4/24/2015 01:00 to 0:10 80.62 79.82 80.71 80.89 80.36 79.57
4/24/2015 00:00 to 23:10 80.48 79.86 80.93 81.57 80.17 77.01
4/23/2015 23:00 to 22:10 78.05 77.63 76.68 76.60 77.01 76.97
4/23/2015 22:00 to 21:10 76.93 77.49 77.16 78.11 76.56 78.42
4/23/2015 21:00 to 20:10 78.46 77.80 77.98 78.62 78.25 78.66
4/23/2015 20:00 to 19:10 78.15 78.17 78.93 78.81 79.34 79.76
4/23/2015 19:00 to 18:10 80.19 79.30 79.14 79.06 78.50 78.56
4/23/2015 18:00 to 17:10 78.68 79.90 79.67 79.06 78.68 78.60
4/23/2015 17:00 to 16:10 78.42 78.42 77.82 78.54 78.62 79.12
4/23/2015 16:00 to 15:10 79.22 78.77 77.57 76.89 79.57 79.24
4/23/2015 15:00 to 14:10 80.38 80.36 79.82 79.20 79.88 82.27
4/23/2015 14:00 to 13:10 82.56 82.89 83.51 83.26 84.50 83.78
4/23/2015 13:00 to 12:10 82.85 85.49 85.82 84.67 84.38 80.44
4/23/2015 12:00 to 11:10 82.21 81.47 80.79 83.55 84.60 83.14
4/23/2015 11:00 to 10:10 82.36 83.16 82.52 82.73 83.47 83.94
4/23/2015 10:00 to 9:10 85.12 85.20 84.91 84.15 83.74 83.66
4/23/2015 09:00 to 8:10 83.78 83.30 82.97 83.10 82.62 82.05
4/23/2015 08:00 to 7:10 82.27 81.96 81.98 82.52 83.14 85.61
4/23/2015 07:00 to 6:10 84.27 83.84 84.67 85.18 83.74 84.83
4/23/2015 06:00 to 5:10 85.14 85.97 86.11 84.79 82.79 82.83
4/23/2015 05:00 to 4:10 83.18 82.79 82.42 81.16 80.71 81.14
4/23/2015 04:00 to 3:10 80.38 80.29 81.37 81.39 81.61 81.32
4/23/2015 03:00 to 2:10 81.49 81.88 82.05 82.21 81.35 80.79
4/23/2015 02:00 to 1:10 80.83 79.55 78.25 76.95 76.89 77.67
4/23/2015 01:00 to 0:10 78.17 79.14 81.88 80.56 80.44 80.97